Barbarossa — ZDFA4 — position and weather

sailwx.info

Track history (hours):
 
Tides and Currents Weather Stations Pressure Air Temp Water Temp Dewpoint Dewpoint Depression Visibility Wind Speed Wind Dir Waves Ship Positions

Barbarossa

Last reported at 2017-Jan-18 13:33 UTC. Time now 2017-Jan-23 00:22 UTC.
Position N 59°48' E 019°38'.

Length 83 m; draft 3.9 m.

Type: Cargo ship. MMSI: 236029000.

Date/timePositionNaut miles runAvg speedWind from/ knotsBaromVisibWave heightAir tempDewpointWater temp
2017-Jan-18 13:33N 59°48' E 019°38'1110.9
2017-Jan-18 12:33N 59°56' E 019°23'1110.8
2017-Jan-18 11:33N 60°04' E 019°08'1510.7
2017-Jan-18 10:11N 60°14' E 018°46'5 7.0
2017-Jan-18 09:31N 60°10' E 018°40'6 2.8
2017-Jan-18 07:33N 60°10' E 018°29'0 0.0
2017-Jan-18 06:26N 60°10' E 018°29'0 0.0
2017-Jan-18 05:32N 60°10' E 018°29'0 0.0
2017-Jan-18 02:25N 60°10' E 018°29'0 0.0
2017-Jan-18 01:18N 60°10' E 018°29'0 0.0
2017-Jan-17 23:05N 60°10' E 018°29'0 0.0
2017-Jan-17 22:29N 60°10' E 018°29'0 0.0
2017-Jan-17 21:22N 60°10' E 018°29'0 0.0
2017-Jan-17 20:04N 60°10' E 018°29'0 0.0
2017-Jan-17 19:31N 60°10' E 018°29'0 0.0
2017-Jan-17 18:33N 60°10' E 018°29'0 0.0
2017-Jan-17 16:20N 60°10' E 018°29'0 0.0
2017-Jan-17 15:32N 60°10' E 018°29'0 0.0
2017-Jan-17 14:25N 60°10' E 018°29'0 0.0
2017-Jan-17 13:31N 60°10' E 018°29'0 0.0
2017-Jan-17 11:33N 60°10' E 018°29'0 0.0
2017-Jan-17 10:30N 60°10' E 018°29'0 0.0
2017-Jan-17 09:30N 60°10' E 018°29'0 0.0
2017-Jan-17 08:33N 60°10' E 018°29'1 0.7
2017-Jan-17 07:33N 60°10' E 018°31'8 7.4
2017-Jan-17 06:32N 60°14' E 018°43'10 9.9
2017-Jan-17 05:33N 60°08' E 018°57'1110.6
2017-Jan-17 04:33N 60°01' E 019°13'1110.8
2017-Jan-17 03:33N 59°55' E 019°31'1010.3
2017-Jan-17 02:33N 59°47' E 019°45'4711.0
2017-Jan-16 22:21N 59°35' E 021°14'911.2
2017-Jan-16 21:33N 59°32' E 021°30'  
2017-Jan-13 18:28N 55°27' E 014°57'1011.4
2017-Jan-13 17:33N 55°23' E 014°40'1111.2
2017-Jan-13 16:33N 55°14' E 014°28'1111.1
2017-Jan-13 15:33N 55°05' E 014°16'4710.9
2017-Jan-13 11:17N 54°48' E 013°01'811.3
2017-Jan-13 10:33N 54°45' E 012°48'1111.1
2017-Jan-13 09:33N 54°40' E 012°31'1111.0
2017-Jan-13 08:32N 54°32' E 012°18'1110.3
2017-Jan-13 07:29N 54°24' E 012°04'1311.3
2017-Jan-13 06:20N 54°25' E 011°42'911.7
2017-Jan-13 05:33N 54°29' E 011°28'1212.2
2017-Jan-13 04:33N 54°35' E 011°10'1212.0
2017-Jan-13 03:34N 54°42' E 010°53'1312.7
2017-Jan-13 02:33N 54°55' E 010°53'1211.9
2017-Jan-13 01:33N 55°05' E 011°02'1211.6
2017-Jan-13 00:30N 55°18' E 011°03'62 1.6
2017-Jan-11 09:33N 56°11' E 011°60'1110.7
2017-Jan-11 08:33N 56°11' E 012°19'1212.2
2017-Jan-11 07:33N 56°04' E 012°37'1211.7
2017-Jan-11 06:33N 55°53' E 012°44'1111.3
2017-Jan-11 05:33N 55°42' E 012°41'1111.3
2017-Jan-11 04:33N 55°31' E 012°43'1110.8
2017-Jan-11 03:33N 55°20' E 012°41'10 9.5
2017-Jan-11 02:33N 55°16' E 012°56'1010.0
2017-Jan-11 01:32N 55°16' E 013°14'38 9.5
2017-Jan-10 21:31N 55°18' E 014°21'9 9.0
2017-Jan-10 20:32N 55°24' E 014°31'9 8.6
2017-Jan-10 19:30N 55°30' E 014°44'  
Track history (hours):
 
Tides and Currents Weather Stations Pressure Air Temp Water Temp Dewpoint Dewpoint Depression Visibility Wind Speed Wind Dir Waves Ship Positions

Barbarossa

Last reported at 2017-Jan-18 13:33 UTC. Time now 2017-Jan-23 00:22 UTC.
Position N 59°48' E 019°38'.

Length 83 m; draft 3.9 m.

Type: Cargo ship. MMSI: 236029000.

Date/timePositionNaut miles runAvg speedWind from/ knotsBaromVisibWave heightAir tempDewpointWater temp
2017-Jan-18 13:33N 59°48' E 019°38'1110.9
2017-Jan-18 12:33N 59°56' E 019°23'1110.8
2017-Jan-18 11:33N 60°04' E 019°08'1510.7
2017-Jan-18 10:11N 60°14' E 018°46'5 7.0
2017-Jan-18 09:31N 60°10' E 018°40'6 2.8
2017-Jan-18 07:33N 60°10' E 018°29'0 0.0
2017-Jan-18 06:26N 60°10' E 018°29'0 0.0
2017-Jan-18 05:32N 60°10' E 018°29'0 0.0
2017-Jan-18 02:25N 60°10' E 018°29'0 0.0
2017-Jan-18 01:18N 60°10' E 018°29'0 0.0
2017-Jan-17 23:05N 60°10' E 018°29'0 0.0
2017-Jan-17 22:29N 60°10' E 018°29'0 0.0
2017-Jan-17 21:22N 60°10' E 018°29'0 0.0
2017-Jan-17 20:04N 60°10' E 018°29'0 0.0
2017-Jan-17 19:31N 60°10' E 018°29'0 0.0
2017-Jan-17 18:33N 60°10' E 018°29'0 0.0
2017-Jan-17 16:20N 60°10' E 018°29'0 0.0
2017-Jan-17 15:32N 60°10' E 018°29'0 0.0
2017-Jan-17 14:25N 60°10' E 018°29'0 0.0
2017-Jan-17 13:31N 60°10' E 018°29'0 0.0
2017-Jan-17 11:33N 60°10' E 018°29'0 0.0
2017-Jan-17 10:30N 60°10' E 018°29'0 0.0
2017-Jan-17 09:30N 60°10' E 018°29'0 0.0
2017-Jan-17 08:33N 60°10' E 018°29'1 0.7
2017-Jan-17 07:33N 60°10' E 018°31'8 7.4
2017-Jan-17 06:32N 60°14' E 018°43'10 9.9
2017-Jan-17 05:33N 60°08' E 018°57'1110.6
2017-Jan-17 04:33N 60°01' E 019°13'1110.8
2017-Jan-17 03:33N 59°55' E 019°31'1010.3
2017-Jan-17 02:33N 59°47' E 019°45'4711.0
2017-Jan-16 22:21N 59°35' E 021°14'911.2
2017-Jan-16 21:33N 59°32' E 021°30'  
2017-Jan-13 18:28N 55°27' E 014°57'1011.4
2017-Jan-13 17:33N 55°23' E 014°40'1111.2
2017-Jan-13 16:33N 55°14' E 014°28'1111.1
2017-Jan-13 15:33N 55°05' E 014°16'4710.9
2017-Jan-13 11:17N 54°48' E 013°01'811.3
2017-Jan-13 10:33N 54°45' E 012°48'1111.1
2017-Jan-13 09:33N 54°40' E 012°31'1111.0
2017-Jan-13 08:32N 54°32' E 012°18'1110.3
2017-Jan-13 07:29N 54°24' E 012°04'1311.3
2017-Jan-13 06:20N 54°25' E 011°42'911.7
2017-Jan-13 05:33N 54°29' E 011°28'1212.2
2017-Jan-13 04:33N 54°35' E 011°10'1212.0
2017-Jan-13 03:34N 54°42' E 010°53'1312.7
2017-Jan-13 02:33N 54°55' E 010°53'1211.9
2017-Jan-13 01:33N 55°05' E 011°02'1211.6
2017-Jan-13 00:30N 55°18' E 011°03'62 1.6
2017-Jan-11 09:33N 56°11' E 011°60'1110.7
2017-Jan-11 08:33N 56°11' E 012°19'1212.2
2017-Jan-11 07:33N 56°04' E 012°37'1211.7
2017-Jan-11 06:33N 55°53' E 012°44'1111.3
2017-Jan-11 05:33N 55°42' E 012°41'1111.3
2017-Jan-11 04:33N 55°31' E 012°43'1110.8
2017-Jan-11 03:33N 55°20' E 012°41'10 9.5
2017-Jan-11 02:33N 55°16' E 012°56'1010.0
2017-Jan-11 01:32N 55°16' E 013°14'38 9.5
2017-Jan-10 21:31N 55°18' E 014°21'9 9.0
2017-Jan-10 20:32N 55°24' E 014°31'9 8.6
2017-Jan-10 19:30N 55°30' E 014°44'  

Dump ship's entire track history